createdAt,value
2023-07-30T00:02:19.856Z,49.86
2023-07-30T00:04:48.832Z,50.30
2023-07-30T00:07:17.207Z,50.24
2023-07-30T00:09:47.248Z,50.38
2023-07-30T00:12:15.542Z,50.12
2023-07-30T00:14:44.439Z,50.17
2023-07-30T00:17:12.901Z,50.53
2023-07-30T00:19:41.207Z,50.57
2023-07-30T00:22:09.391Z,50.62
2023-07-30T00:24:37.597Z,50.82
2023-07-30T00:27:08.332Z,50.53
2023-07-30T00:29:36.558Z,50.93
2023-07-30T00:32:04.885Z,50.19
2023-07-30T00:34:33.014Z,50.43
2023-07-30T00:37:01.133Z,50.05
2023-07-30T00:39:29.275Z,49.91
2023-07-30T00:41:57.403Z,50.23
2023-07-30T00:44:27.320Z,49.55
2023-07-30T00:46:55.690Z,49.72
2023-07-30T00:49:24.045Z,49.40
2023-07-30T00:51:52.308Z,49.28
2023-07-30T00:54:20.712Z,49.53
2023-07-30T00:56:54.947Z,49.53
2023-07-30T00:59:23.747Z,49.11
2023-07-30T01:01:53.982Z,49.22
2023-07-30T01:04:22.287Z,49.04
2023-07-30T01:06:50.710Z,49.56
2023-07-30T01:09:19.115Z,49.23
2023-07-30T01:11:48.165Z,49.54
2023-07-30T01:14:20.118Z,49.67
2023-07-30T01:16:48.393Z,49.69
2023-07-30T01:19:18.023Z,49.75
2023-07-30T01:21:47.596Z,49.45
2023-07-30T01:24:15.822Z,49.80
2023-07-30T01:26:47.313Z,49.49
2023-07-30T01:29:19.906Z,49.57
2023-07-30T01:31:57.482Z,49.40
2023-07-30T01:34:29.554Z,49.86
2023-07-30T01:37:00.666Z,49.84
2023-07-30T01:39:30.028Z,49.75
2023-07-30T01:41:58.886Z,49.76
2023-07-30T01:44:27.102Z,50.00
2023-07-30T01:46:55.283Z,49.81
2023-07-30T01:49:23.648Z,50.11
2023-07-30T01:51:51.924Z,50.25
2023-07-30T01:54:21.533Z,50.24
2023-07-30T01:56:49.998Z,50.26
2023-07-30T01:59:18.117Z,50.15
2023-07-30T02:01:46.471Z,50.20
2023-07-30T02:04:14.625Z,50.38
2023-07-30T02:06:42.819Z,50.28
2023-07-30T02:09:12.081Z,50.30
2023-07-30T02:11:41.676Z,50.62
2023-07-30T02:14:11.653Z,50.35
2023-07-30T02:16:39.958Z,50.77
2023-07-30T02:19:08.101Z,50.66
2023-07-30T02:21:38.304Z,50.78
2023-07-30T02:24:11.059Z,50.43
2023-07-30T02:26:41.648Z,50.63
2023-07-30T02:29:09.926Z,50.78
2023-07-30T02:31:38.347Z,50.78
2023-07-30T02:34:08.151Z,50.77
2023-07-30T02:36:36.323Z,50.85
2023-07-30T02:39:05.239Z,50.87
2023-07-30T02:41:33.441Z,50.60
2023-07-30T02:44:03.063Z,50.82
2023-07-30T02:46:31.305Z,50.81
2023-07-30T02:48:59.571Z,51.01
2023-07-30T02:51:28.126Z,50.76
2023-07-30T02:54:00.584Z,50.82
2023-07-30T02:56:28.791Z,50.77
2023-07-30T02:58:57.143Z,50.82
2023-07-30T03:01:27.188Z,51.04
2023-07-30T03:03:55.598Z,51.10
2023-07-30T03:06:23.869Z,50.92
2023-07-30T03:08:52.148Z,51.25
2023-07-30T03:11:20.428Z,51.07
2023-07-30T03:13:48.582Z,51.04
2023-07-30T03:16:16.906Z,51.42
2023-07-30T03:18:48.843Z,51.33
2023-07-30T03:21:17.007Z,51.38
2023-07-30T03:23:45.578Z,51.37
2023-07-30T03:26:15.217Z,51.11
2023-07-30T03:28:43.606Z,51.53
2023-07-30T03:31:12.002Z,51.16
2023-07-30T03:33:44.739Z,51.57
2023-07-30T03:36:15.712Z,51.40
2023-07-30T03:38:48.460Z,51.76
2023-07-30T03:41:16.757Z,51.42
2023-07-30T03:43:44.984Z,51.74
2023-07-30T03:46:13.212Z,51.58
2023-07-30T03:48:41.442Z,52.09
2023-07-30T03:51:10.067Z,51.87
2023-07-30T03:53:39.726Z,52.11
2023-07-30T03:56:07.977Z,51.83
2023-07-30T03:58:37.990Z,51.80
2023-07-30T04:01:08.190Z,52.18
2023-07-30T04:03:36.486Z,52.08
2023-07-30T04:06:06.133Z,51.87
2023-07-30T04:08:34.273Z,52.02
2023-07-30T04:11:03.879Z,51.78
2023-07-30T04:13:32.186Z,52.21
2023-07-30T04:16:00.843Z,52.21
2023-07-30T04:18:28.929Z,52.10
2023-07-30T04:20:57.621Z,52.31
2023-07-30T04:23:25.788Z,52.42
2023-07-30T04:25:54.202Z,52.28
2023-07-30T04:28:24.372Z,52.40
2023-07-30T04:30:52.798Z,52.62
2023-07-30T04:33:23.933Z,52.70
2023-07-30T04:35:52.215Z,52.63
2023-07-30T04:38:20.438Z,52.85
2023-07-30T04:40:48.679Z,52.47
2023-07-30T04:43:18.720Z,52.67
2023-07-30T04:45:48.277Z,52.83
2023-07-30T04:48:16.514Z,52.88
2023-07-30T04:50:47.745Z,52.59
2023-07-30T04:53:17.252Z,52.69
2023-07-30T04:55:45.411Z,52.61
2023-07-30T04:58:13.840Z,52.72
2023-07-30T05:00:42.061Z,52.58
2023-07-30T05:03:12.923Z,52.44
2023-07-30T05:05:41.190Z,52.67
2023-07-30T05:08:09.453Z,52.51
2023-07-30T05:10:37.674Z,52.68
2023-07-30T05:13:05.940Z,52.68
2023-07-30T05:15:34.154Z,52.51
2023-07-30T05:18:02.585Z,52.75
2023-07-30T05:20:32.263Z,52.56
2023-07-30T05:23:01.055Z,52.67
2023-07-30T05:25:34.986Z,53.09
2023-07-30T05:28:03.504Z,52.73
2023-07-30T05:30:31.795Z,53.11
2023-07-30T05:33:00.139Z,52.75
2023-07-30T05:35:29.214Z,53.12
2023-07-30T05:38:00.979Z,52.88
2023-07-30T05:40:29.256Z,53.01
2023-07-30T05:42:57.444Z,53.26
2023-07-30T05:45:25.664Z,53.10
2023-07-30T05:47:53.808Z,52.99
2023-07-30T05:50:22.070Z,53.33
2023-07-30T05:52:50.200Z,53.19
2023-07-30T05:55:19.922Z,53.10
2023-07-30T05:57:48.070Z,53.46
2023-07-30T06:00:18.887Z,53.59
2023-07-30T06:02:47.114Z,53.29
2023-07-30T06:05:15.277Z,53.34
2023-07-30T06:07:43.548Z,53.43
2023-07-30T06:10:12.079Z,53.44
2023-07-30T06:12:41.678Z,53.78
2023-07-30T06:15:12.093Z,53.57
2023-07-30T06:17:40.377Z,53.83
2023-07-30T06:20:10.300Z,53.75
2023-07-30T06:22:38.739Z,53.85
2023-07-30T06:25:08.037Z,53.96
2023-07-30T06:27:36.217Z,53.51
2023-07-30T06:30:10.544Z,53.95
2023-07-30T06:32:40.363Z,53.69
2023-07-30T06:35:09.976Z,53.77
2023-07-30T06:37:38.332Z,53.67
2023-07-30T06:40:07.813Z,53.61
2023-07-30T06:42:36.558Z,54.15
2023-07-30T06:45:07.203Z,53.75
2023-07-30T06:47:36.788Z,53.98
2023-07-30T06:50:09.503Z,53.77
2023-07-30T06:52:37.799Z,53.77
2023-07-30T06:55:09.445Z,54.07
2023-07-30T06:57:41.208Z,53.89
2023-07-30T07:00:19.978Z,53.51
2023-07-30T07:02:48.337Z,53.88
2023-07-30T07:05:17.350Z,53.94
2023-07-30T07:07:45.920Z,53.61
2023-07-30T07:10:14.590Z,53.79
2023-07-30T07:12:43.230Z,53.61
2023-07-30T07:15:13.284Z,53.60
2023-07-30T07:17:42.026Z,53.73
2023-07-30T07:20:12.267Z,53.64
2023-07-30T07:22:40.487Z,53.59
2023-07-30T07:25:09.480Z,53.64
2023-07-30T07:27:37.571Z,53.31
2023-07-30T07:30:06.172Z,53.64
2023-07-30T07:32:39.368Z,53.64
2023-07-30T07:35:08.831Z,53.39
2023-07-30T07:37:37.019Z,53.58
2023-07-30T07:40:05.862Z,53.28
2023-07-30T07:42:34.075Z,53.71
2023-07-30T07:45:02.444Z,53.75
2023-07-30T07:47:30.720Z,53.76
2023-07-30T07:50:00.450Z,53.95
2023-07-30T07:52:29.733Z,54.41
2023-07-30T07:54:58.102Z,54.77
2023-07-30T07:57:26.513Z,55.27
2023-07-30T07:59:54.742Z,55.72
2023-07-30T08:02:23.030Z,56.13
2023-07-30T08:04:51.329Z,56.08
2023-07-30T08:07:20.873Z,55.97
2023-07-30T08:09:49.016Z,56.00
2023-07-30T08:12:17.208Z,56.00
2023-07-30T08:14:45.407Z,56.37
2023-07-30T08:17:16.273Z,56.18
2023-07-30T08:19:44.377Z,56.45
2023-07-30T08:22:12.644Z,56.86
2023-07-30T08:24:42.099Z,56.42
2023-07-30T08:27:10.317Z,57.43
2023-07-30T08:29:39.715Z,57.26
2023-07-30T08:32:27.462Z,57.26
2023-07-30T08:35:08.626Z,57.59
2023-07-30T08:37:36.773Z,57.43
2023-07-30T08:40:07.530Z,57.72
2023-07-30T08:42:35.934Z,57.77
2023-07-30T08:45:08.299Z,57.77
2023-07-30T08:47:36.597Z,57.44
2023-07-30T08:50:05.248Z,57.39
2023-07-30T08:52:37.344Z,57.91
2023-07-30T08:55:08.376Z,57.63
2023-07-30T08:57:38.208Z,58.01
2023-07-30T09:00:10.349Z,58.55
2023-07-30T09:02:42.175Z,58.62
2023-07-30T09:05:11.032Z,58.60
2023-07-30T09:07:39.470Z,58.56
2023-07-30T09:10:09.696Z,58.87
2023-07-30T09:12:40.871Z,59.07
2023-07-30T09:15:10.482Z,59.37
2023-07-30T09:17:39.280Z,59.30
2023-07-30T09:20:08.801Z,59.46
2023-07-30T09:22:41.620Z,59.37
2023-07-30T09:25:12.522Z,59.41
2023-07-30T09:27:40.631Z,59.11
2023-07-30T09:30:09.847Z,58.88
2023-07-30T09:32:38.705Z,58.60
2023-07-30T09:35:08.828Z,58.67
2023-07-30T09:37:39.940Z,58.11
2023-07-30T09:40:09.660Z,57.89
2023-07-30T09:42:41.174Z,57.96
2023-07-30T09:45:18.453Z,58.22
2023-07-30T09:47:50.342Z,57.75
2023-07-30T09:50:19.064Z,57.65
2023-07-30T09:52:47.795Z,57.59
2023-07-30T09:55:19.848Z,57.80
2023-07-30T09:57:49.665Z,57.46
2023-07-30T10:00:17.995Z,57.58
2023-07-30T10:02:49.414Z,57.23
2023-07-30T10:05:22.154Z,57.30
2023-07-30T10:07:52.293Z,57.21
2023-07-30T10:10:22.136Z,57.05
2023-07-30T10:12:53.492Z,57.04
2023-07-30T10:15:24.529Z,56.97
2023-07-30T10:17:53.572Z,57.49
2023-07-30T10:20:26.485Z,57.16
2023-07-30T10:22:56.079Z,57.38
2023-07-30T10:25:25.317Z,57.52
2023-07-30T10:27:55.143Z,56.86
2023-07-30T10:30:23.585Z,57.12
2023-07-30T10:33:05.417Z,57.21
2023-07-30T10:35:47.183Z,57.17
2023-07-30T10:38:18.414Z,57.04
2023-07-30T10:41:03.399Z,56.89
2023-07-30T10:43:36.084Z,57.18
2023-07-30T10:46:06.540Z,56.99
2023-07-30T10:48:36.213Z,56.83
2023-07-30T10:51:06.620Z,56.72
2023-07-30T10:53:37.038Z,56.71
2023-07-30T10:56:06.344Z,56.83
2023-07-30T10:58:37.795Z,57.05
2023-07-30T11:01:06.655Z,56.91
2023-07-30T11:03:35.644Z,56.84
2023-07-30T11:06:05.171Z,56.74
2023-07-30T11:08:41.005Z,56.51
2023-07-30T11:11:10.902Z,56.74
2023-07-30T11:13:42.177Z,56.52
2023-07-30T11:16:11.765Z,56.29
2023-07-30T11:18:41.039Z,56.55
2023-07-30T11:21:10.498Z,56.36
2023-07-30T11:23:42.814Z,56.58
2023-07-30T11:26:15.208Z,56.70
2023-07-30T11:28:51.077Z,56.57
2023-07-30T11:31:21.585Z,56.59
2023-07-30T11:33:52.917Z,56.61
2023-07-30T11:36:23.837Z,56.74
2023-07-30T11:38:54.575Z,56.31
2023-07-30T11:41:24.387Z,56.58
2023-07-30T11:43:54.226Z,56.25
2023-07-30T11:46:23.937Z,56.17
2023-07-30T11:48:54.190Z,56.55
2023-07-30T11:51:25.149Z,56.15
2023-07-30T11:53:55.461Z,56.31
2023-07-30T11:56:25.288Z,56.25
2023-07-30T11:58:57.367Z,56.22
2023-07-30T12:01:27.682Z,56.56
2023-07-30T12:04:02.522Z,56.38
2023-07-30T12:06:41.375Z,56.15
2023-07-30T12:09:14.089Z,56.83
2023-07-30T12:11:49.220Z,56.92
2023-07-30T12:14:18.848Z,56.73
2023-07-30T12:16:47.316Z,56.86
2023-07-30T12:19:15.534Z,56.88
2023-07-30T12:21:43.826Z,56.91
2023-07-30T12:24:12.203Z,56.71
2023-07-30T12:26:40.603Z,56.98
2023-07-30T12:29:08.948Z,56.46
2023-07-30T12:31:38.826Z,57.10
2023-07-30T12:34:07.222Z,57.64
2023-07-30T12:36:35.484Z,57.10
2023-07-30T12:39:03.770Z,57.32
2023-07-30T12:41:31.944Z,57.18
2023-07-30T12:44:00.313Z,57.54
2023-07-30T12:46:31.347Z,57.35
2023-07-30T12:49:04.134Z,57.26
2023-07-30T12:51:32.212Z,57.30
2023-07-30T12:54:00.459Z,56.88
2023-07-30T12:56:28.803Z,56.85
2023-07-30T12:58:56.992Z,56.63
2023-07-30T13:01:25.665Z,57.14
2023-07-30T13:03:55.801Z,56.86
2023-07-30T13:06:25.493Z,56.85
2023-07-30T13:08:54.901Z,56.62
2023-07-30T13:11:23.301Z,56.74
2023-07-30T13:13:51.630Z,57.21
2023-07-30T13:16:19.877Z,57.36
2023-07-30T13:18:48.087Z,57.16
2023-07-30T13:21:16.358Z,56.74
2023-07-30T13:23:46.133Z,57.06
2023-07-30T13:26:14.332Z,56.65
2023-07-30T13:28:42.800Z,57.03
2023-07-30T13:31:11.797Z,56.85
2023-07-30T13:33:40.106Z,56.65
2023-07-30T13:36:09.550Z,56.85
2023-07-30T13:38:39.840Z,56.62
2023-07-30T13:41:09.437Z,56.35
2023-07-30T13:43:38.731Z,56.45
2023-07-30T13:46:06.994Z,56.47
2023-07-30T13:48:35.303Z,56.63
2023-07-30T13:51:04.461Z,56.84
2023-07-30T13:53:35.949Z,56.81
2023-07-30T13:56:04.257Z,56.46
2023-07-30T13:58:33.845Z,56.38
2023-07-30T14:01:02.085Z,56.70
2023-07-30T14:03:30.326Z,56.95
2023-07-30T14:05:58.912Z,57.34
2023-07-30T14:08:27.223Z,57.15
2023-07-30T14:10:55.472Z,57.19
2023-07-30T14:13:26.125Z,56.71
2023-07-30T14:16:00.647Z,57.08
2023-07-30T14:18:28.973Z,56.97
2023-07-30T14:20:57.348Z,56.62
2023-07-30T14:23:25.521Z,56.88
2023-07-30T14:25:53.651Z,56.75
2023-07-30T14:28:22.033Z,56.06
2023-07-30T14:30:50.408Z,55.90
2023-07-30T14:33:20.128Z,56.19
2023-07-30T14:35:48.477Z,56.24
2023-07-30T14:38:17.183Z,56.02
2023-07-30T14:40:45.382Z,55.71
2023-07-30T14:43:13.762Z,55.79
2023-07-30T14:45:41.946Z,55.41
2023-07-30T14:48:10.175Z,55.33
2023-07-30T14:50:39.882Z,55.51
2023-07-30T14:53:08.022Z,55.50
2023-07-30T14:55:36.265Z,55.11
2023-07-30T14:58:04.541Z,55.29
2023-07-30T15:00:32.908Z,54.95
2023-07-30T15:03:01.270Z,55.06
2023-07-30T15:05:29.545Z,54.46
2023-07-30T15:07:59.301Z,54.70
2023-07-30T15:10:27.726Z,54.42
2023-07-30T15:12:55.939Z,54.94
2023-07-30T15:15:24.900Z,54.96
2023-07-30T15:17:53.153Z,55.06
2023-07-30T15:20:22.350Z,54.49
2023-07-30T15:22:52.147Z,55.24
2023-07-30T15:25:22.018Z,54.66
2023-07-30T15:27:50.315Z,54.68
2023-07-30T15:30:18.736Z,54.62
2023-07-30T15:32:47.196Z,54.52
2023-07-30T15:35:16.369Z,54.28
2023-07-30T15:37:44.719Z,54.56
2023-07-30T15:40:14.353Z,54.68
2023-07-30T15:42:50.157Z,54.72
2023-07-30T15:45:18.652Z,54.26
2023-07-30T15:47:47.115Z,54.49
2023-07-30T15:50:15.271Z,54.42
2023-07-30T15:52:43.480Z,54.44
2023-07-30T15:55:11.688Z,54.37
2023-07-30T15:57:40.080Z,54.69
2023-07-30T16:00:11.343Z,54.29
2023-07-30T16:02:39.606Z,54.24
2023-07-30T16:05:08.331Z,54.64
2023-07-30T16:07:37.685Z,54.38
2023-07-30T16:10:06.428Z,54.32
2023-07-30T16:12:34.706Z,54.63
2023-07-30T16:15:03.310Z,54.74
2023-07-30T16:17:32.978Z,54.56
2023-07-30T16:20:01.164Z,54.70
2023-07-30T16:22:29.318Z,54.20
2023-07-30T16:24:57.468Z,54.77
2023-07-30T16:27:28.013Z,54.24
2023-07-30T16:34:12.127Z,54.60
2023-07-30T16:36:46.450Z,55.17
2023-07-30T16:39:17.694Z,55.16
2023-07-30T16:41:48.970Z,55.13
2023-07-30T16:44:17.663Z,55.22
2023-07-30T16:46:51.184Z,55.88
2023-07-30T16:49:21.361Z,55.80
2023-07-30T16:51:51.280Z,55.89
2023-07-30T16:54:24.424Z,55.99
2023-07-30T16:56:53.013Z,56.08
2023-07-30T16:59:21.615Z,55.82
2023-07-30T17:01:50.725Z,55.94
2023-07-30T17:04:23.649Z,56.26
2023-07-30T17:06:53.279Z,55.99
2023-07-30T17:09:29.136Z,56.57
2023-07-30T17:11:58.026Z,56.77
2023-07-30T17:14:26.472Z,56.28
2023-07-30T17:17:04.907Z,56.79
2023-07-30T17:19:38.888Z,56.24
2023-07-30T17:22:08.115Z,56.72
2023-07-30T17:24:36.799Z,56.86
2023-07-30T17:27:07.101Z,56.51
2023-07-30T17:29:35.669Z,56.74
2023-07-30T17:32:05.645Z,56.94
2023-07-30T17:34:33.937Z,57.66
2023-07-30T17:37:04.292Z,57.36
2023-07-30T17:39:37.021Z,57.60
2023-07-30T17:42:06.058Z,57.47
2023-07-30T17:44:34.233Z,57.88
2023-07-30T17:47:02.661Z,57.72
2023-07-30T17:49:30.966Z,57.74
2023-07-30T17:51:59.199Z,57.36
2023-07-30T17:54:29.137Z,57.70
2023-07-30T17:56:57.314Z,57.56
2023-07-30T17:59:26.846Z,57.78
2023-07-30T18:01:55.306Z,57.43
2023-07-30T18:04:23.618Z,57.43
2023-07-30T18:06:52.082Z,57.65
2023-07-30T18:09:20.357Z,57.62
2023-07-30T18:11:49.981Z,57.43
2023-07-30T18:14:18.178Z,57.12
2023-07-30T18:16:46.442Z,57.60
2023-07-30T18:19:14.667Z,57.73
2023-07-30T18:21:42.918Z,57.64
2023-07-30T18:24:11.213Z,57.57
2023-07-30T18:26:43.088Z,57.91
2023-07-30T18:29:12.824Z,57.65
2023-07-30T18:31:41.272Z,58.00
2023-07-30T18:34:09.550Z,58.37
2023-07-30T18:36:37.955Z,58.29
2023-07-30T18:39:06.398Z,58.58
2023-07-30T18:41:34.922Z,58.22
2023-07-30T18:44:03.164Z,58.27
2023-07-30T18:46:32.883Z,57.99
2023-07-30T18:49:01.176Z,58.10
2023-07-30T18:51:29.398Z,57.74
2023-07-30T18:53:57.649Z,58.07
2023-07-30T18:56:25.973Z,57.69
2023-07-30T18:58:54.526Z,57.44
2023-07-30T19:01:23.027Z,57.89
2023-07-30T19:03:52.770Z,57.69
2023-07-30T19:06:21.002Z,57.31
2023-07-30T19:08:49.434Z,57.19
2023-07-30T19:11:18.018Z,57.56
2023-07-30T19:13:46.264Z,57.72
2023-07-30T19:16:14.663Z,57.27
2023-07-30T19:18:42.859Z,57.17
2023-07-30T19:21:12.489Z,57.50
2023-07-30T19:23:41.700Z,57.22
2023-07-30T19:26:10.204Z,57.18
2023-07-30T19:28:38.589Z,57.32
2023-07-30T19:31:08.404Z,57.34
2023-07-30T19:33:39.674Z,57.42
2023-07-30T19:36:08.102Z,57.39
2023-07-30T19:38:37.947Z,57.45
2023-07-30T19:41:18.565Z,57.75
2023-07-30T19:43:54.370Z,57.72
2023-07-30T19:46:22.683Z,57.66
2023-07-30T19:48:51.552Z,57.41
2023-07-30T19:51:20.279Z,57.34
2023-07-30T19:53:49.943Z,57.35
2023-07-30T19:56:18.469Z,57.55
2023-07-30T19:58:46.732Z,57.73
2023-07-30T20:01:15.047Z,57.63
2023-07-30T20:03:46.536Z,57.84
2023-07-30T20:06:17.126Z,57.63
2023-07-30T20:08:46.130Z,57.63
2023-07-30T20:11:17.598Z,57.94
2023-07-30T20:13:45.928Z,57.83
2023-07-30T20:16:17.159Z,57.67
2023-07-30T20:18:45.538Z,58.09
2023-07-30T20:21:14.201Z,57.96
2023-07-30T20:23:42.473Z,57.72
2023-07-30T20:26:16.106Z,57.59
2023-07-30T20:28:45.484Z,57.62
2023-07-30T20:31:14.247Z,58.83
2023-07-30T20:33:42.665Z,58.86
2023-07-30T20:36:10.964Z,59.24
2023-07-30T20:38:39.311Z,59.10
2023-07-30T20:41:07.676Z,58.50
2023-07-30T20:43:42.147Z,58.78
2023-07-30T20:46:11.550Z,58.78
2023-07-30T20:48:43.258Z,58.47
2023-07-30T20:51:11.993Z,58.53
2023-07-30T20:53:40.110Z,58.16
2023-07-30T20:56:08.465Z,58.62
2023-07-30T20:58:38.111Z,58.25
2023-07-30T21:01:06.344Z,58.18
2023-07-30T21:03:34.655Z,57.93
2023-07-30T21:06:02.917Z,57.86
2023-07-30T21:08:31.853Z,57.83
2023-07-30T21:11:00.007Z,57.89
2023-07-30T21:13:28.154Z,57.87
2023-07-30T21:16:03.621Z,58.18
2023-07-30T21:18:31.787Z,58.57
2023-07-30T21:20:59.950Z,58.49
2023-07-30T21:23:28.175Z,58.23
2023-07-30T21:25:56.443Z,58.56
2023-07-30T21:28:24.725Z,58.31
2023-07-30T21:31:06.904Z,58.72
2023-07-30T21:33:37.600Z,58.81
2023-07-30T21:36:06.931Z,58.63
2023-07-30T21:38:38.010Z,58.52
2023-07-30T21:41:06.287Z,58.18
2023-07-30T21:43:34.491Z,58.58
2023-07-30T21:46:04.412Z,58.67
2023-07-30T21:48:32.743Z,58.33
2023-07-30T21:51:01.865Z,58.09
2023-07-30T21:53:30.091Z,58.14
2023-07-30T21:55:58.828Z,58.11
2023-07-30T21:58:27.152Z,58.19
2023-07-30T22:00:56.178Z,58.62
2023-07-30T22:03:26.980Z,58.18
2023-07-30T22:05:55.182Z,58.19
2023-07-30T22:08:23.499Z,58.33
2023-07-30T22:10:51.821Z,58.09
2023-07-30T22:13:20.965Z,58.50
2023-07-30T22:15:49.599Z,58.40
2023-07-30T22:18:17.807Z,58.46
2023-07-30T22:20:47.381Z,58.10
2023-07-30T22:23:15.543Z,58.44
2023-07-30T22:25:43.632Z,58.44
2023-07-30T22:28:11.953Z,58.10
2023-07-30T22:30:41.770Z,58.68
2023-07-30T22:33:10.682Z,58.29
2023-07-30T22:35:38.900Z,58.77
2023-07-30T22:38:08.484Z,58.23
2023-07-30T22:40:36.711Z,58.33
2023-07-30T22:43:04.815Z,58.27
2023-07-30T22:45:33.544Z,58.17
2023-07-30T22:48:01.755Z,58.60
2023-07-30T22:50:30.690Z,58.63
2023-07-30T22:52:58.997Z,58.22
2023-07-30T22:55:28.944Z,58.64
2023-07-30T22:57:57.367Z,58.55
2023-07-30T23:00:25.722Z,58.30
2023-07-30T23:02:54.057Z,58.50
2023-07-30T23:05:22.465Z,58.20
2023-07-30T23:07:50.599Z,58.62
2023-07-30T23:10:20.859Z,58.18
2023-07-30T23:12:50.474Z,58.52
2023-07-30T23:15:19.128Z,58.24
2023-07-30T23:17:47.400Z,58.57
2023-07-30T23:20:15.896Z,58.56
2023-07-30T23:22:44.201Z,58.13
2023-07-30T23:25:12.434Z,58.46
2023-07-30T23:27:40.622Z,58.29
2023-07-30T23:30:10.806Z,58.09
2023-07-30T23:32:39.072Z,58.35
2023-07-30T23:35:08.144Z,58.25
2023-07-30T23:37:38.532Z,57.96
2023-07-30T23:40:07.861Z,57.92
2023-07-30T23:42:36.570Z,57.82
2023-07-30T23:45:05.181Z,58.08
2023-07-30T23:47:34.913Z,58.20
2023-07-30T23:50:03.150Z,58.15
2023-07-30T23:52:32.210Z,58.23
2023-07-30T23:55:00.664Z,57.89
2023-07-30T23:57:28.969Z,57.76
2023-07-30T23:59:57.208Z,58.35
